sensor_id;sensor_type;location;lat;lon;timestamp;pressure;altitude;pressure_sealevel;temperature;humidity
84501;BME280;74725;44.210;17.906;2024-02-21T00:00:06;98923.34;;;10.11;86.52
84501;BME280;74725;44.210;17.906;2024-02-21T00:02:31;98917.47;;;10.12;87.07
84501;BME280;74725;44.210;17.906;2024-02-21T00:04:57;98930.34;;;10.15;87.15
84501;BME280;74725;44.210;17.906;2024-02-21T00:07:22;98917.09;;;10.07;87.17
84501;BME280;74725;44.210;17.906;2024-02-21T00:09:48;98923.75;;;10.05;87.55
84501;BME280;74725;44.210;17.906;2024-02-21T00:12:14;98917.03;;;10.14;87.54
84501;BME280;74725;44.210;17.906;2024-02-21T00:14:40;98908.50;;;10.08;88.02
84501;BME280;74725;44.210;17.906;2024-02-21T00:17:06;98913.53;;;10.13;87.52
84501;BME280;74725;44.210;17.906;2024-02-21T00:19:34;98905.34;;;10.10;87.33
84501;BME280;74725;44.210;17.906;2024-02-21T00:21:59;98908.81;;;10.17;87.50
84501;BME280;74725;44.210;17.906;2024-02-21T00:24:25;98902.13;;;10.25;87.69
84501;BME280;74725;44.210;17.906;2024-02-21T00:26:50;98900.94;;;10.30;86.79
84501;BME280;74725;44.210;17.906;2024-02-21T00:29:16;98903.28;;;10.28;86.46
84501;BME280;74725;44.210;17.906;2024-02-21T00:31:41;98907.56;;;10.29;88.09
84501;BME280;74725;44.210;17.906;2024-02-21T00:34:07;98906.34;;;10.34;87.88
84501;BME280;74725;44.210;17.906;2024-02-21T00:36:34;98910.63;;;10.42;86.35
84501;BME280;74725;44.210;17.906;2024-02-21T00:38:59;98907.91;;;10.38;85.85
84501;BME280;74725;44.210;17.906;2024-02-21T00:41:25;98910.25;;;10.36;86.63
84501;BME280;74725;44.210;17.906;2024-02-21T00:43:50;98904.84;;;10.29;86.06
84501;BME280;74725;44.210;17.906;2024-02-21T00:46:16;98906.34;;;10.34;86.56
84501;BME280;74725;44.210;17.906;2024-02-21T00:48:41;98896.66;;;10.25;86.72
84501;BME280;74725;44.210;17.906;2024-02-21T00:51:07;98899.34;;;10.29;86.97
84501;BME280;74725;44.210;17.906;2024-02-21T00:53:32;98886.84;;;10.32;90.93
84501;BME280;74725;44.210;17.906;2024-02-21T00:55:59;98895.81;;;10.32;87.64
84501;BME280;74725;44.210;17.906;2024-02-21T00:58:25;98895.88;;;10.21;86.87
84501;BME280;74725;44.210;17.906;2024-02-21T01:00:50;98895.13;;;10.17;87.10
84501;BME280;74725;44.210;17.906;2024-02-21T01:03:16;98883.75;;;10.22;86.54
84501;BME280;74725;44.210;17.906;2024-02-21T01:05:41;98882.22;;;10.18;86.84
84501;BME280;74725;44.210;17.906;2024-02-21T01:08:07;98878.66;;;10.24;86.26
84501;BME280;74725;44.210;17.906;2024-02-21T01:10:33;98866.22;;;10.13;86.79
84501;BME280;74725;44.210;17.906;2024-02-21T01:12:58;98876.81;;;10.11;86.24
84501;BME280;74725;44.210;17.906;2024-02-21T01:15:24;98867.84;;;10.07;87.55
84501;BME280;74725;44.210;17.906;2024-02-21T01:17:49;98871.75;;;10.05;87.33
84501;BME280;74725;44.210;17.906;2024-02-21T01:20:20;98866.69;;;10.04;87.63
84501;BME280;74725;44.210;17.906;2024-02-21T01:22:46;98866.25;;;10.09;87.77
84501;BME280;74725;44.210;17.906;2024-02-21T01:25:12;98867.03;;;10.10;86.13
84501;BME280;74725;44.210;17.906;2024-02-21T01:27:37;98863.88;;;10.15;87.01
84501;BME280;74725;44.210;17.906;2024-02-21T01:30:04;98869.28;;;10.25;86.89
84501;BME280;74725;44.210;17.906;2024-02-21T01:32:31;98872.13;;;10.11;86.63
84501;BME280;74725;44.210;17.906;2024-02-21T01:34:57;98874.53;;;10.02;86.21
84501;BME280;74725;44.210;17.906;2024-02-21T01:37:22;98869.81;;;10.02;87.54
84501;BME280;74725;44.210;17.906;2024-02-21T01:39:48;98867.53;;;9.97;87.78
84501;BME280;74725;44.210;17.906;2024-02-21T01:42:14;98867.09;;;10.02;87.18
84501;BME280;74725;44.210;17.906;2024-02-21T01:44:40;98855.00;;;10.00;87.66
84501;BME280;74725;44.210;17.906;2024-02-21T01:47:07;98860.03;;;10.05;88.57
84501;BME280;74725;44.210;17.906;2024-02-21T01:49:33;98864.00;;;10.00;88.23
84501;BME280;74725;44.210;17.906;2024-02-21T01:52:00;98849.13;;;10.01;87.65
84501;BME280;74725;44.210;17.906;2024-02-21T01:54:26;98857.72;;;10.03;87.22
84501;BME280;74725;44.210;17.906;2024-02-21T01:56:54;98854.53;;;10.09;86.96
84501;BME280;74725;44.210;17.906;2024-02-21T01:59:21;98849.84;;;10.09;86.59
84501;BME280;74725;44.210;17.906;2024-02-21T02:01:46;98847.06;;;10.13;86.00
84501;BME280;74725;44.210;17.906;2024-02-21T02:04:13;98850.97;;;10.15;86.13
84501;BME280;74725;44.210;17.906;2024-02-21T02:06:40;98842.47;;;10.02;86.68
84501;BME280;74725;44.210;17.906;2024-02-21T02:09:06;98847.53;;;10.08;86.54
84501;BME280;74725;44.210;17.906;2024-02-21T02:11:32;98852.19;;;10.11;86.08
84501;BME280;74725;44.210;17.906;2024-02-21T02:13:58;98851.00;;;10.12;86.00
84501;BME280;74725;44.210;17.906;2024-02-21T02:16:23;98861.56;;;10.10;86.50
84501;BME280;74725;44.210;17.906;2024-02-21T02:18:49;98854.06;;;10.17;85.83
84501;BME280;74725;44.210;17.906;2024-02-21T02:21:29;98852.06;;;10.25;85.92
84501;BME280;74725;44.210;17.906;2024-02-21T02:23:56;98863.03;;;10.25;86.19
84501;BME280;74725;44.210;17.906;2024-02-21T02:26:22;98870.53;;;10.14;88.70
84501;BME280;74725;44.210;17.906;2024-02-21T02:28:48;98876.25;;;9.78;91.46
84501;BME280;74725;44.210;17.906;2024-02-21T02:31:13;98870.44;;;9.76;93.37
84501;BME280;74725;44.210;17.906;2024-02-21T02:33:39;98871.53;;;9.82;95.27
84501;BME280;74725;44.210;17.906;2024-02-21T02:36:05;98880.13;;;9.88;93.59
84501;BME280;74725;44.210;17.906;2024-02-21T02:38:30;98873.44;;;9.89;94.89
84501;BME280;74725;44.210;17.906;2024-02-21T02:40:56;98872.25;;;9.93;95.76
84501;BME280;74725;44.210;17.906;2024-02-21T02:43:21;98866.03;;;9.86;97.01
84501;BME280;74725;44.210;17.906;2024-02-21T02:45:47;98861.75;;;9.85;100.00
84501;BME280;74725;44.210;17.906;2024-02-21T02:48:12;98859.03;;;9.81;100.00
84501;BME280;74725;44.210;17.906;2024-02-21T02:50:38;98873.09;;;9.79;100.00
84501;BME280;74725;44.210;17.906;2024-02-21T02:53:04;98867.22;;;9.88;100.00
84501;BME280;74725;44.210;17.906;2024-02-21T02:55:29;98865.63;;;9.87;98.17
84501;BME280;74725;44.210;17.906;2024-02-21T02:57:55;98869.56;;;9.83;97.13
84501;BME280;74725;44.210;17.906;2024-02-21T03:00:21;98863.34;;;9.78;97.69
84501;BME280;74725;44.210;17.906;2024-02-21T03:02:48;98865.72;;;9.76;95.80
84501;BME280;74725;44.210;17.906;2024-02-21T03:05:18;98865.78;;;9.69;95.96
84501;BME280;74725;44.210;17.906;2024-02-21T03:07:44;98872.34;;;9.75;96.20
84501;BME280;74725;44.210;17.906;2024-02-21T03:10:11;98869.25;;;9.77;96.64
84501;BME280;74725;44.210;17.906;2024-02-21T03:12:37;98872.34;;;9.79;96.42
84501;BME280;74725;44.210;17.906;2024-02-21T03:15:04;98877.00;;;9.82;95.66
84501;BME280;74725;44.210;17.906;2024-02-21T03:17:30;98875.91;;;9.76;96.65
84501;BME280;74725;44.210;17.906;2024-02-21T03:19:57;98876.22;;;9.85;98.24
84501;BME280;74725;44.210;17.906;2024-02-21T03:22:22;98882.03;;;9.87;98.96
84501;BME280;74725;44.210;17.906;2024-02-21T03:24:48;98878.84;;;9.99;98.08
84501;BME280;74725;44.210;17.906;2024-02-21T03:27:14;98883.28;;;9.79;100.00
84501;BME280;74725;44.210;17.906;2024-02-21T03:29:39;98877.41;;;9.84;100.00
84501;BME280;74725;44.210;17.906;2024-02-21T03:32:05;98891.84;;;9.85;100.00
84501;BME280;74725;44.210;17.906;2024-02-21T03:34:30;98891.13;;;9.73;100.00
84501;BME280;74725;44.210;17.906;2024-02-21T03:36:56;98888.41;;;9.70;100.00
84501;BME280;74725;44.210;17.906;2024-02-21T03:39:21;98897.34;;;9.81;100.00
84501;BME280;74725;44.210;17.906;2024-02-21T03:41:48;98889.56;;;9.76;100.00
84501;BME280;74725;44.210;17.906;2024-02-21T03:44:14;98896.16;;;9.82;100.00
84501;BME280;74725;44.210;17.906;2024-02-21T03:46:39;98895.72;;;9.87;100.00
84501;BME280;74725;44.210;17.906;2024-02-21T03:49:05;98891.84;;;9.85;100.00
84501;BME280;74725;44.210;17.906;2024-02-21T03:51:30;98891.81;;;9.92;100.00
84501;BME280;74725;44.210;17.906;2024-02-21T03:53:56;98901.97;;;9.91;100.00
84501;BME280;74725;44.210;17.906;2024-02-21T03:56:22;98914.91;;;9.84;100.00
84501;BME280;74725;44.210;17.906;2024-02-21T03:58:47;98913.34;;;9.83;99.82
84501;BME280;74725;44.210;17.906;2024-02-21T04:01:15;98921.22;;;9.73;100.00
84501;BME280;74725;44.210;17.906;2024-02-21T04:03:42;98916.19;;;9.65;100.00
84501;BME280;74725;44.210;17.906;2024-02-21T04:06:08;98918.59;;;9.52;100.00
84501;BME280;74725;44.210;17.906;2024-02-21T04:08:34;98920.94;;;9.57;100.00
84501;BME280;74725;44.210;17.906;2024-02-21T04:10:59;98916.25;;;9.54;100.00
84501;BME280;74725;44.210;17.906;2024-02-21T04:13:25;98915.06;;;9.55;100.00
84501;BME280;74725;44.210;17.906;2024-02-21T04:15:51;98906.81;;;9.62;100.00
84501;BME280;74725;44.210;17.906;2024-02-21T04:18:16;98922.78;;;9.71;100.00
84501;BME280;74725;44.210;17.906;2024-02-21T04:20:42;98918.94;;;9.65;100.00
84501;BME280;74725;44.210;17.906;2024-02-21T04:23:07;98926.28;;;9.75;100.00
84501;BME280;74725;44.210;17.906;2024-02-21T04:25:33;98925.91;;;9.73;100.00
84501;BME280;74725;44.210;17.906;2024-02-21T04:27:59;98930.19;;;9.74;100.00
84501;BME280;74725;44.210;17.906;2024-02-21T04:30:24;98937.22;;;9.78;100.00
84501;BME280;74725;44.210;17.906;2024-02-21T04:32:50;98941.47;;;9.83;100.00
84501;BME280;74725;44.210;17.906;2024-02-21T04:35:16;98933.25;;;9.83;100.00
84501;BME280;74725;44.210;17.906;2024-02-21T04:37:42;98949.63;;;9.94;100.00
84501;BME280;74725;44.210;17.906;2024-02-21T04:40:08;98946.88;;;9.97;100.00
84501;BME280;74725;44.210;17.906;2024-02-21T04:42:34;98947.28;;;9.96;100.00
84501;BME280;74725;44.210;17.906;2024-02-21T04:45:00;98940.19;;;10.02;100.00
84501;BME280;74725;44.210;17.906;2024-02-21T04:47:26;98942.56;;;10.00;100.00
84501;BME280;74725;44.210;17.906;2024-02-21T04:49:51;98938.28;;;9.99;100.00
84501;BME280;74725;44.210;17.906;2024-02-21T04:52:17;98942.59;;;9.96;100.00
84501;BME280;74725;44.210;17.906;2024-02-21T04:54:43;98939.41;;;10.01;100.00
84501;BME280;74725;44.210;17.906;2024-02-21T04:57:08;98949.59;;;9.97;100.00
84501;BME280;74725;44.210;17.906;2024-02-21T04:59:36;98936.34;;;9.96;100.00
84501;BME280;74725;44.210;17.906;2024-02-21T05:02:02;98936.69;;;9.98;100.00
84501;BME280;74725;44.210;17.906;2024-02-21T05:04:28;98939.09;;;9.92;100.00
84501;BME280;74725;44.210;17.906;2024-02-21T05:06:54;98936.81;;;9.84;100.00
84501;BME280;74725;44.210;17.906;2024-02-21T05:09:20;98930.59;;;9.76;100.00
84501;BME280;74725;44.210;17.906;2024-02-21T05:11:45;98935.31;;;9.68;100.00
84501;BME280;74725;44.210;17.906;2024-02-21T05:14:11;98932.19;;;9.70;100.00
84501;BME280;74725;44.210;17.906;2024-02-21T05:16:38;98925.97;;;9.59;100.00
84501;BME280;74725;44.210;17.906;2024-02-21T05:19:04;98931.47;;;9.55;100.00
84501;BME280;74725;44.210;17.906;2024-02-21T05:21:29;98930.34;;;9.49;100.00
84501;BME280;74725;44.210;17.906;2024-02-21T05:23:55;98937.38;;;9.43;100.00
84501;BME280;74725;44.210;17.906;2024-02-21T05:26:24;98930.34;;;9.45;100.00
84501;BME280;74725;44.210;17.906;2024-02-21T05:28:50;98931.91;;;9.43;100.00
84501;BME280;74725;44.210;17.906;2024-02-21T05:31:17;98931.91;;;9.43;100.00
84501;BME280;74725;44.210;17.906;2024-02-21T05:33:44;98940.91;;;9.40;100.00
84501;BME280;74725;44.210;17.906;2024-02-21T05:36:09;98937.72;;;9.52;100.00
84501;BME280;74725;44.210;17.906;2024-02-21T05:38:35;98937.75;;;9.48;100.00
84501;BME280;74725;44.210;17.906;2024-02-21T05:41:01;98931.44;;;9.59;100.00
84501;BME280;74725;44.210;17.906;2024-02-21T05:43:27;98934.59;;;9.57;100.00
84501;BME280;74725;44.210;17.906;2024-02-21T05:45:52;98941.59;;;9.62;100.00
84501;BME280;74725;44.210;17.906;2024-02-21T05:48:18;98940.72;;;9.75;100.00
84501;BME280;74725;44.210;17.906;2024-02-21T05:50:43;98940.69;;;9.86;100.00
84501;BME280;74725;44.210;17.906;2024-02-21T05:53:09;98946.13;;;9.93;100.00
84501;BME280;74725;44.210;17.906;2024-02-21T05:55:36;98937.06;;;10.03;100.00
84501;BME280;74725;44.210;17.906;2024-02-21T05:58:02;98937.81;;;10.08;100.00
84501;BME280;74725;44.210;17.906;2024-02-21T06:00:28;98952.63;;;10.10;100.00
84501;BME280;74725;44.210;17.906;2024-02-21T06:02:53;98951.06;;;10.13;100.00
84501;BME280;74725;44.210;17.906;2024-02-21T06:05:19;98942.06;;;10.16;100.00
84501;BME280;74725;44.210;17.906;2024-02-21T06:07:45;98964.31;;;10.21;100.00
84501;BME280;74725;44.210;17.906;2024-02-21T06:10:11;98953.78;;;10.16;100.00
84501;BME280;74725;44.210;17.906;2024-02-21T06:12:36;98951.03;;;10.20;100.00
84501;BME280;74725;44.210;17.906;2024-02-21T06:15:02;98963.53;;;10.21;100.00
84501;BME280;74725;44.210;17.906;2024-02-21T06:17:28;98969.81;;;10.14;100.00
84501;BME280;74725;44.210;17.906;2024-02-21T06:19:53;98970.56;;;10.22;100.00
84501;BME280;74725;44.210;17.906;2024-02-21T06:22:19;98978.41;;;10.20;100.00
84501;BME280;74725;44.210;17.906;2024-02-21T06:24:47;98972.50;;;10.21;100.00
84501;BME280;74725;44.210;17.906;2024-02-21T06:27:19;98981.50;;;10.22;100.00
84501;BME280;74725;44.210;17.906;2024-02-21T06:29:45;98983.47;;;10.21;100.00
84501;BME280;74725;44.210;17.906;2024-02-21T06:32:10;98985.81;;;10.30;100.00
84501;BME280;74725;44.210;17.906;2024-02-21T06:34:36;98980.34;;;10.26;100.00
84501;BME280;74725;44.210;17.906;2024-02-21T06:37:01;98987.72;;;10.29;100.00
84501;BME280;74725;44.210;17.906;2024-02-21T06:39:27;98985.34;;;10.39;100.00
84501;BME280;74725;44.210;17.906;2024-02-21T06:41:54;98986.06;;;10.46;100.00
84501;BME280;74725;44.210;17.906;2024-02-21T06:44:21;98979.75;;;10.53;100.00
84501;BME280;74725;44.210;17.906;2024-02-21T06:46:47;98985.09;;;10.71;100.00
84501;BME280;74725;44.210;17.906;2024-02-21T06:49:13;98995.22;;;10.77;100.00
84501;BME280;74725;44.210;17.906;2024-02-21T06:51:44;98987.75;;;10.78;98.52
84501;BME280;74725;44.210;17.906;2024-02-21T06:54:10;99001.47;;;10.78;99.78
84501;BME280;74725;44.210;17.906;2024-02-21T06:56:37;99008.16;;;10.73;99.36
84501;BME280;74725;44.210;17.906;2024-02-21T06:59:03;99007.31;;;10.80;99.66
84501;BME280;74725;44.210;17.906;2024-02-21T07:01:32;99011.22;;;10.79;98.88
84501;BME280;74725;44.210;17.906;2024-02-21T07:03:57;99007.63;;;10.89;98.95
84501;BME280;74725;44.210;17.906;2024-02-21T07:06:23;99010.16;;;10.69;97.86
84501;BME280;74725;44.210;17.906;2024-02-21T07:08:48;99004.50;;;10.87;98.29
84501;BME280;74725;44.210;17.906;2024-02-21T07:11:14;99016.94;;;10.99;97.67
84501;BME280;74725;44.210;17.906;2024-02-21T07:13:39;99014.50;;;11.08;96.61
84501;BME280;74725;44.210;17.906;2024-02-21T07:16:06;99012.91;;;11.11;96.14
84501;BME280;74725;44.210;17.906;2024-02-21T07:18:32;99021.41;;;11.23;94.89
84501;BME280;74725;44.210;17.906;2024-02-21T07:20:57;99016.50;;;11.42;92.96
84501;BME280;74725;44.210;17.906;2024-02-21T07:23:24;99020.63;;;11.57;92.27
84501;BME280;74725;44.210;17.906;2024-02-21T07:25:49;99024.00;;;11.72;92.04
84501;BME280;74725;44.210;17.906;2024-02-21T07:28:15;99027.47;;;11.76;92.33
84501;BME280;74725;44.210;17.906;2024-02-21T07:30:41;99025.75;;;11.93;91.13
84501;BME280;74725;44.210;17.906;2024-02-21T07:33:07;99021.25;;;12.06;90.21
84501;BME280;74725;44.210;17.906;2024-02-21T07:35:33;99025.50;;;12.11;88.34
84501;BME280;74725;44.210;17.906;2024-02-21T07:37:58;99023.84;;;12.17;88.85
84501;BME280;74725;44.210;17.906;2024-02-21T07:40:24;99023.34;;;12.26;88.86
84501;BME280;74725;44.210;17.906;2024-02-21T07:42:49;99027.47;;;12.10;87.29
84501;BME280;74725;44.210;17.906;2024-02-21T07:45:15;99028.34;;;12.04;88.68
84501;BME280;74725;44.210;17.906;2024-02-21T07:47:40;99029.41;;;11.79;89.89
84501;BME280;74725;44.210;17.906;2024-02-21T07:50:08;99030.28;;;11.69;90.53
84501;BME280;74725;44.210;17.906;2024-02-21T07:52:35;99021.78;;;11.60;90.54
84501;BME280;74725;44.210;17.906;2024-02-21T07:55:01;99022.50;;;11.67;91.50
84501;BME280;74725;44.210;17.906;2024-02-21T07:57:26;99025.00;;;11.55;92.77
84501;BME280;74725;44.210;17.906;2024-02-21T07:59:52;99027.91;;;11.74;92.77
84501;BME280;74725;44.210;17.906;2024-02-21T08:02:17;99032.91;;;11.80;92.56
84501;BME280;74725;44.210;17.906;2024-02-21T08:04:43;99027.81;;;11.85;92.09
84501;BME280;74725;44.210;17.906;2024-02-21T08:07:09;99023.41;;;11.91;89.89
84501;BME280;74725;44.210;17.906;2024-02-21T08:09:35;99032.66;;;12.05;88.72
84501;BME280;74725;44.210;17.906;2024-02-21T08:12:04;99032.97;;;12.10;87.67
84501;BME280;74725;44.210;17.906;2024-02-21T08:14:29;99030.53;;;12.16;86.08
84501;BME280;74725;44.210;17.906;2024-02-21T08:16:55;99032.72;;;12.28;85.78
84501;BME280;74725;44.210;17.906;2024-02-21T08:19:21;99036.19;;;12.32;82.67
84501;BME280;74725;44.210;17.906;2024-02-21T08:21:47;99029.69;;;12.46;83.43
84501;BME280;74725;44.210;17.906;2024-02-21T08:24:14;99024.38;;;12.62;79.20
84501;BME280;74725;44.210;17.906;2024-02-21T08:26:41;99024.38;;;12.62;77.38
84501;BME280;74725;44.210;17.906;2024-02-21T08:29:07;99017.75;;;12.83;77.83
84501;BME280;74725;44.210;17.906;2024-02-21T08:31:32;99015.66;;;12.91;76.96
84501;BME280;74725;44.210;17.906;2024-02-21T08:34:00;99019.00;;;12.79;76.56
84501;BME280;74725;44.210;17.906;2024-02-21T08:36:34;99017.63;;;12.90;75.25
84501;BME280;74725;44.210;17.906;2024-02-21T08:39:00;99019.66;;;13.10;74.02
84501;BME280;74725;44.210;17.906;2024-02-21T08:41:26;99021.50;;;13.16;73.88
84501;BME280;74725;44.210;17.906;2024-02-21T08:43:53;99021.31;;;13.04;74.11
84501;BME280;74725;44.210;17.906;2024-02-21T08:46:20;99012.06;;;12.94;73.91
84501;BME280;74725;44.210;17.906;2024-02-21T08:48:46;99016.00;;;13.16;74.10
84501;BME280;74725;44.210;17.906;2024-02-21T08:51:12;99009.22;;;13.25;73.27
84501;BME280;74725;44.210;17.906;2024-02-21T08:53:38;99010.41;;;13.20;74.65
84501;BME280;74725;44.210;17.906;2024-02-21T08:56:04;99013.06;;;13.27;74.33
84501;BME280;74725;44.210;17.906;2024-02-21T08:58:30;99014.38;;;13.42;74.05
84501;BME280;74725;44.210;17.906;2024-02-21T09:00:56;99016.00;;;13.40;73.63
84501;BME280;74725;44.210;17.906;2024-02-21T09:03:22;99011.47;;;13.50;74.18
84501;BME280;74725;44.210;17.906;2024-02-21T09:05:48;99011.97;;;13.44;73.56
84501;BME280;74725;44.210;17.906;2024-02-21T09:08:14;99015.41;;;13.29;74.01
84501;BME280;74725;44.210;17.906;2024-02-21T09:10:40;99009.06;;;12.85;75.19
84501;BME280;74725;44.210;17.906;2024-02-21T09:13:05;99012.47;;;12.69;76.73
84501;BME280;74725;44.210;17.906;2024-02-21T09:15:32;99020.06;;;12.61;76.15
84501;BME280;74725;44.210;17.906;2024-02-21T09:17:58;99015.69;;;12.64;76.22
84501;BME280;74725;44.210;17.906;2024-02-21T09:20:24;99009.78;;;12.65;76.43
84501;BME280;74725;44.210;17.906;2024-02-21T09:22:49;99015.44;;;12.82;75.53
84501;BME280;74725;44.210;17.906;2024-02-21T09:25:15;99012.13;;;12.90;74.74
84501;BME280;74725;44.210;17.906;2024-02-21T09:27:40;99020.78;;;12.89;75.24
84501;BME280;74725;44.210;17.906;2024-02-21T09:30:07;99025.09;;;13.13;74.30
84501;BME280;74725;44.210;17.906;2024-02-21T09:32:32;99014.16;;;13.33;73.15
84501;BME280;74725;44.210;17.906;2024-02-21T09:34:58;99020.16;;;13.48;72.58
84501;BME280;74725;44.210;17.906;2024-02-21T09:37:24;99025.03;;;13.80;70.54
84501;BME280;74725;44.210;17.906;2024-02-21T09:39:49;99026.34;;;13.92;69.16
84501;BME280;74725;44.210;17.906;2024-02-21T09:42:20;99028.19;;;14.35;70.14
84501;BME280;74725;44.210;17.906;2024-02-21T09:44:47;99031.31;;;14.37;67.88
84501;BME280;74725;44.210;17.906;2024-02-21T09:47:21;99024.69;;;14.51;70.00
84501;BME280;74725;44.210;17.906;2024-02-21T09:49:47;99023.69;;;14.77;69.47
84501;BME280;74725;44.210;17.906;2024-02-21T09:52:15;99028.41;;;14.93;67.77
84501;BME280;74725;44.210;17.906;2024-02-21T09:54:41;99008.19;;;15.29;65.76
84501;BME280;74725;44.210;17.906;2024-02-21T09:57:10;99026.00;;;15.40;67.00
84501;BME280;74725;44.210;17.906;2024-02-21T09:59:37;99029.25;;;15.52;63.90
84501;BME280;74725;44.210;17.906;2024-02-21T10:02:03;99020.97;;;15.52;63.74
84501;BME280;74725;44.210;17.906;2024-02-21T10:04:30;99025.72;;;15.51;65.78
84501;BME280;74725;44.210;17.906;2024-02-21T10:06:56;99014.13;;;15.73;65.78
84501;BME280;74725;44.210;17.906;2024-02-21T10:09:27;99023.44;;;15.62;63.04
84501;BME280;74725;44.210;17.906;2024-02-21T10:11:54;99017.53;;;15.48;64.11
84501;BME280;74725;44.210;17.906;2024-02-21T10:14:20;99016.22;;;15.69;64.07
84501;BME280;74725;44.210;17.906;2024-02-21T10:16:56;99009.75;;;15.88;63.00
84501;BME280;74725;44.210;17.906;2024-02-21T10:19:23;98994.72;;;16.02;63.86
84501;BME280;74725;44.210;17.906;2024-02-21T10:22:02;99002.03;;;16.08;65.16
84501;BME280;74725;44.210;17.906;2024-02-21T10:24:29;98999.38;;;16.05;63.17
84501;BME280;74725;44.210;17.906;2024-02-21T10:27:02;99005.34;;;16.16;62.85
84501;BME280;74725;44.210;17.906;2024-02-21T10:29:30;99002.25;;;16.39;61.17
84501;BME280;74725;44.210;17.906;2024-02-21T10:32:09;99003.38;;;16.80;59.63
84501;BME280;74725;44.210;17.906;2024-02-21T10:34:36;98990.84;;;16.89;59.17
84501;BME280;74725;44.210;17.906;2024-02-21T10:37:03;98984.31;;;16.82;58.79
84501;BME280;74725;44.210;17.906;2024-02-21T10:39:37;98981.34;;;16.77;58.71
84501;BME280;74725;44.210;17.906;2024-02-21T10:42:03;98974.44;;;16.94;58.92
84501;BME280;74725;44.210;17.906;2024-02-21T10:44:31;98971.75;;;17.03;59.55
84501;BME280;74725;44.210;17.906;2024-02-21T10:46:57;98958.84;;;17.22;57.69
84501;BME280;74725;44.210;17.906;2024-02-21T10:49:26;98953.81;;;17.30;55.47
84501;BME280;74725;44.210;17.906;2024-02-21T10:52:09;98949.00;;;17.21;55.90
84501;BME280;74725;44.210;17.906;2024-02-21T10:54:45;98942.47;;;17.15;57.34
84501;BME280;74725;44.210;17.906;2024-02-21T10:57:13;98939.13;;;16.98;59.10
84501;BME280;74725;44.210;17.906;2024-02-21T10:59:40;98930.09;;;16.72;60.06
84501;BME280;74725;44.210;17.906;2024-02-21T11:02:07;98928.56;;;16.71;57.61
84501;BME280;74725;44.210;17.906;2024-02-21T11:04:33;98915.03;;;16.38;59.11
84501;BME280;74725;44.210;17.906;2024-02-21T11:07:04;98920.69;;;15.97;59.88
84501;BME280;74725;44.210;17.906;2024-02-21T11:09:31;98915.34;;;15.22;61.09
84501;BME280;74725;44.210;17.906;2024-02-21T11:11:58;98907.47;;;15.08;62.05
84501;BME280;74725;44.210;17.906;2024-02-21T11:14:26;98894.00;;;15.10;63.27
84501;BME280;74725;44.210;17.906;2024-02-21T11:16:52;98889.56;;;15.00;63.48
84501;BME280;74725;44.210;17.906;2024-02-21T11:21:43;98888.03;;;14.99;63.72
84501;BME280;74725;44.210;17.906;2024-02-21T11:24:09;98885.59;;;15.01;64.45
84501;BME280;74725;44.210;17.906;2024-02-21T11:26:37;98879.50;;;15.22;64.11
84501;BME280;74725;44.210;17.906;2024-02-21T11:29:04;98871.31;;;15.73;63.06
84501;BME280;74725;44.210;17.906;2024-02-21T11:31:43;98867.41;;;16.09;58.52
84501;BME280;74725;44.210;17.906;2024-02-21T11:34:17;98858.81;;;16.54;57.25
84501;BME280;74725;44.210;17.906;2024-02-21T11:36:49;98848.16;;;16.66;56.76
84501;BME280;74725;44.210;17.906;2024-02-21T11:39:23;98848.06;;;16.91;58.27
84501;BME280;74725;44.210;17.906;2024-02-21T11:42:06;98853.53;;;17.26;57.46
84501;BME280;74725;44.210;17.906;2024-02-21T11:44:37;98845.56;;;17.59;56.40
84501;BME280;74725;44.210;17.906;2024-02-21T11:47:08;98840.38;;;17.70;53.73
84501;BME280;74725;44.210;17.906;2024-02-21T11:49:47;98846.44;;;17.78;55.78
84501;BME280;74725;44.210;17.906;2024-02-21T11:52:24;98838.78;;;17.91;54.64
84501;BME280;74725;44.210;17.906;2024-02-21T11:54:51;98834.91;;;17.89;53.92
84501;BME280;74725;44.210;17.906;2024-02-21T11:57:24;98837.06;;;17.84;52.29
84501;BME280;74725;44.210;17.906;2024-02-21T11:59:51;98826.41;;;17.74;51.02
84501;BME280;74725;44.210;17.906;2024-02-21T12:02:21;98816.47;;;17.86;52.36
84501;BME280;74725;44.210;17.906;2024-02-21T12:04:47;98819.72;;;17.93;53.22
84501;BME280;74725;44.210;17.906;2024-02-21T12:07:14;98816.91;;;17.84;52.69
84501;BME280;74725;44.210;17.906;2024-02-21T12:09:41;98800.22;;;17.66;51.57
84501;BME280;74725;44.210;17.906;2024-02-21T12:12:08;98801.47;;;17.74;51.31
84501;BME280;74725;44.210;17.906;2024-02-21T12:14:42;98795.09;;;17.55;52.60
84501;BME280;74725;44.210;17.906;2024-02-21T12:17:10;98792.50;;;17.29;54.34
84501;BME280;74725;44.210;17.906;2024-02-21T12:19:42;98782.16;;;17.52;54.32
84501;BME280;74725;44.210;17.906;2024-02-21T12:22:07;98783.41;;;17.60;52.09
84501;BME280;74725;44.210;17.906;2024-02-21T12:24:34;98771.34;;;17.45;53.88
84501;BME280;74725;44.210;17.906;2024-02-21T12:27:01;98769.28;;;17.27;55.08
84501;BME280;74725;44.210;17.906;2024-02-21T12:29:29;98765.72;;;17.26;54.95
84501;BME280;74725;44.210;17.906;2024-02-21T12:32:04;98756.03;;;17.22;55.04
84501;BME280;74725;44.210;17.906;2024-02-21T12:34:31;98750.69;;;17.27;54.36
84501;BME280;74725;44.210;17.906;2024-02-21T12:37:01;98751.59;;;17.24;53.99
84501;BME280;74725;44.210;17.906;2024-02-21T12:39:28;98738.06;;;17.26;53.43
84501;BME280;74725;44.210;17.906;2024-02-21T12:41:55;98742.69;;;16.98;52.99
84501;BME280;74725;44.210;17.906;2024-02-21T12:44:24;98729.97;;;16.79;51.77
84501;BME280;74725;44.210;17.906;2024-02-21T12:46:50;98729.44;;;16.71;54.38
84501;BME280;74725;44.210;17.906;2024-02-21T12:49:19;98731.97;;;17.00;54.53